sensor_id;sensor_type;location;lat;lon;timestamp;P1;durP1;ratioP1;P2;durP2;ratioP2
71303;SDS011;59091;47.446;19.148;2023-07-02T00:01:44;16.30;;;11.25;;
71303;SDS011;59091;47.446;19.148;2023-07-02T00:04:10;16.35;;;11.30;;
71303;SDS011;59091;47.446;19.148;2023-07-02T00:06:38;13.60;;;10.43;;
71303;SDS011;59091;47.446;19.148;2023-07-02T00:09:08;15.90;;;11.05;;
71303;SDS011;59091;47.446;19.148;2023-07-02T00:11:37;18.73;;;11.02;;
71303;SDS011;59091;47.446;19.148;2023-07-02T00:14:03;14.80;;;10.63;;
71303;SDS011;59091;47.446;19.148;2023-07-02T00:16:29;16.45;;;10.80;;
71303;SDS011;59091;47.446;19.148;2023-07-02T00:18:55;16.92;;;10.90;;
71303;SDS011;59091;47.446;19.148;2023-07-02T00:21:20;15.07;;;10.95;;
71303;SDS011;59091;47.446;19.148;2023-07-02T00:23:46;13.38;;;10.32;;
71303;SDS011;59091;47.446;19.148;2023-07-02T00:26:12;17.77;;;11.30;;
71303;SDS011;59091;47.446;19.148;2023-07-02T00:28:37;16.70;;;11.15;;
71303;SDS011;59091;47.446;19.148;2023-07-02T00:31:03;15.70;;;11.07;;
71303;SDS011;59091;47.446;19.148;2023-07-02T00:33:29;20.00;;;11.00;;
71303;SDS011;59091;47.446;19.148;2023-07-02T00:35:56;14.75;;;10.50;;
71303;SDS011;59091;47.446;19.148;2023-07-02T00:38:22;16.63;;;10.38;;
71303;SDS011;59091;47.446;19.148;2023-07-02T00:40:48;14.35;;;10.68;;
71303;SDS011;59091;47.446;19.148;2023-07-02T00:43:13;16.73;;;10.30;;
71303;SDS011;59091;47.446;19.148;2023-07-02T00:45:39;16.15;;;11.02;;
71303;SDS011;59091;47.446;19.148;2023-07-02T00:48:05;18.40;;;10.55;;
71303;SDS011;59091;47.446;19.148;2023-07-02T00:50:31;14.95;;;10.50;;
71303;SDS011;59091;47.446;19.148;2023-07-02T00:52:57;18.30;;;10.50;;
71303;SDS011;59091;47.446;19.148;2023-07-02T00:55:22;17.15;;;10.98;;
71303;SDS011;59091;47.446;19.148;2023-07-02T00:57:48;14.40;;;10.10;;
71303;SDS011;59091;47.446;19.148;2023-07-02T01:00:14;16.38;;;10.68;;
71303;SDS011;59091;47.446;19.148;2023-07-02T01:02:40;18.48;;;10.75;;
71303;SDS011;59091;47.446;19.148;2023-07-02T01:05:09;15.68;;;10.70;;
71303;SDS011;59091;47.446;19.148;2023-07-02T01:07:41;16.25;;;10.73;;
71303;SDS011;59091;47.446;19.148;2023-07-02T01:10:06;13.95;;;10.25;;
71303;SDS011;59091;47.446;19.148;2023-07-02T01:12:32;13.85;;;9.98;;
71303;SDS011;59091;47.446;19.148;2023-07-02T01:14:59;13.82;;;9.80;;
71303;SDS011;59091;47.446;19.148;2023-07-02T01:17:27;13.35;;;10.02;;
71303;SDS011;59091;47.446;19.148;2023-07-02T01:19:54;15.75;;;10.82;;
71303;SDS011;59091;47.446;19.148;2023-07-02T01:22:27;15.38;;;9.93;;
71303;SDS011;59091;47.446;19.148;2023-07-02T01:24:54;16.40;;;10.30;;
71303;SDS011;59091;47.446;19.148;2023-07-02T01:27:20;14.15;;;9.98;;
71303;SDS011;59091;47.446;19.148;2023-07-02T01:29:46;15.43;;;10.70;;
71303;SDS011;59091;47.446;19.148;2023-07-02T01:32:15;13.23;;;9.45;;
71303;SDS011;59091;47.446;19.148;2023-07-02T01:34:41;13.10;;;9.20;;
71303;SDS011;59091;47.446;19.148;2023-07-02T01:37:09;13.68;;;9.93;;
71303;SDS011;59091;47.446;19.148;2023-07-02T01:39:34;14.95;;;9.95;;
71303;SDS011;59091;47.446;19.148;2023-07-02T01:42:10;13.95;;;9.95;;
71303;SDS011;59091;47.446;19.148;2023-07-02T01:44:42;15.55;;;10.30;;
71303;SDS011;59091;47.446;19.148;2023-07-02T01:47:09;16.15;;;10.38;;
71303;SDS011;59091;47.446;19.148;2023-07-02T01:49:35;12.35;;;8.82;;
71303;SDS011;59091;47.446;19.148;2023-07-02T01:52:02;16.63;;;9.25;;
71303;SDS011;59091;47.446;19.148;2023-07-02T01:54:29;14.18;;;9.00;;
71303;SDS011;59091;47.446;19.148;2023-07-02T01:56:56;10.82;;;8.40;;
71303;SDS011;59091;47.446;19.148;2023-07-02T01:59:23;14.15;;;8.32;;
71303;SDS011;59091;47.446;19.148;2023-07-02T02:01:49;11.02;;;7.80;;
71303;SDS011;59091;47.446;19.148;2023-07-02T02:04:14;15.20;;;7.95;;
71303;SDS011;59091;47.446;19.148;2023-07-02T02:06:40;14.40;;;7.68;;
71303;SDS011;59091;47.446;19.148;2023-07-02T02:09:06;10.23;;;7.60;;
71303;SDS011;59091;47.446;19.148;2023-07-02T02:11:34;11.55;;;7.55;;
71303;SDS011;59091;47.446;19.148;2023-07-02T02:14:03;11.60;;;7.63;;
71303;SDS011;59091;47.446;19.148;2023-07-02T02:16:28;9.82;;;7.20;;
71303;SDS011;59091;47.446;19.148;2023-07-02T02:18:54;12.82;;;7.70;;
71303;SDS011;59091;47.446;19.148;2023-07-02T02:21:20;11.05;;;7.47;;
71303;SDS011;59091;47.446;19.148;2023-07-02T02:23:46;9.57;;;7.15;;
71303;SDS011;59091;47.446;19.148;2023-07-02T02:26:11;10.93;;;6.53;;
71303;SDS011;59091;47.446;19.148;2023-07-02T02:28:37;11.20;;;7.40;;
71303;SDS011;59091;47.446;19.148;2023-07-02T02:31:02;9.90;;;6.38;;
71303;SDS011;59091;47.446;19.148;2023-07-02T02:33:28;9.55;;;6.47;;
71303;SDS011;59091;47.446;19.148;2023-07-02T02:35:53;9.45;;;6.55;;
71303;SDS011;59091;47.446;19.148;2023-07-02T02:38:19;11.13;;;6.53;;
71303;SDS011;59091;47.446;19.148;2023-07-02T02:40:44;8.68;;;6.03;;
71303;SDS011;59091;47.446;19.148;2023-07-02T02:43:10;9.43;;;6.63;;
71303;SDS011;59091;47.446;19.148;2023-07-02T02:45:35;11.05;;;6.75;;
71303;SDS011;59091;47.446;19.148;2023-07-02T02:48:01;10.27;;;6.32;;
71303;SDS011;59091;47.446;19.148;2023-07-02T02:50:26;11.30;;;6.45;;
71303;SDS011;59091;47.446;19.148;2023-07-02T02:52:52;8.15;;;6.28;;
71303;SDS011;59091;47.446;19.148;2023-07-02T02:55:19;10.93;;;6.18;;
71303;SDS011;59091;47.446;19.148;2023-07-02T02:57:44;9.98;;;6.38;;
71303;SDS011;59091;47.446;19.148;2023-07-02T03:00:10;10.40;;;6.20;;
71303;SDS011;59091;47.446;19.148;2023-07-02T03:02:36;9.10;;;6.63;;
71303;SDS011;59091;47.446;19.148;2023-07-02T03:05:02;10.45;;;6.85;;
71303;SDS011;59091;47.446;19.148;2023-07-02T03:07:28;10.60;;;6.45;;
71303;SDS011;59091;47.446;19.148;2023-07-02T03:09:54;7.82;;;5.90;;
71303;SDS011;59091;47.446;19.148;2023-07-02T03:12:20;13.25;;;6.13;;
71303;SDS011;59091;47.446;19.148;2023-07-02T03:14:46;9.63;;;5.80;;
71303;SDS011;59091;47.446;19.148;2023-07-02T03:17:16;8.57;;;6.18;;
71303;SDS011;59091;47.446;19.148;2023-07-02T03:19:42;7.20;;;5.90;;
71303;SDS011;59091;47.446;19.148;2023-07-02T03:22:07;9.55;;;5.93;;
71303;SDS011;59091;47.446;19.148;2023-07-02T03:24:32;11.48;;;6.32;;
71303;SDS011;59091;47.446;19.148;2023-07-02T03:26:58;7.97;;;5.70;;
71303;SDS011;59091;47.446;19.148;2023-07-02T03:29:23;10.18;;;6.20;;
71303;SDS011;59091;47.446;19.148;2023-07-02T03:31:49;10.02;;;5.50;;
71303;SDS011;59091;47.446;19.148;2023-07-02T03:34:14;7.03;;;5.70;;
71303;SDS011;59091;47.446;19.148;2023-07-02T03:36:39;9.02;;;5.68;;
71303;SDS011;59091;47.446;19.148;2023-07-02T03:39:05;8.00;;;5.60;;
71303;SDS011;59091;47.446;19.148;2023-07-02T03:41:31;8.15;;;5.45;;
71303;SDS011;59091;47.446;19.148;2023-07-02T03:43:56;8.20;;;5.10;;
71303;SDS011;59091;47.446;19.148;2023-07-02T03:46:22;9.48;;;5.45;;
71303;SDS011;59091;47.446;19.148;2023-07-02T03:48:47;8.25;;;5.45;;
71303;SDS011;59091;47.446;19.148;2023-07-02T03:51:13;7.43;;;5.00;;
71303;SDS011;59091;47.446;19.148;2023-07-02T03:53:41;10.73;;;5.50;;
71303;SDS011;59091;47.446;19.148;2023-07-02T03:56:06;9.02;;;5.68;;
71303;SDS011;59091;47.446;19.148;2023-07-02T03:58:32;6.75;;;5.13;;
71303;SDS011;59091;47.446;19.148;2023-07-02T04:00:58;10.43;;;5.07;;
71303;SDS011;59091;47.446;19.148;2023-07-02T04:03:24;8.85;;;5.05;;
71303;SDS011;59091;47.446;19.148;2023-07-02T04:05:50;6.07;;;4.93;;
71303;SDS011;59091;47.446;19.148;2023-07-02T04:08:15;9.07;;;5.00;;
71303;SDS011;59091;47.446;19.148;2023-07-02T04:10:41;7.15;;;4.82;;
71303;SDS011;59091;47.446;19.148;2023-07-02T04:13:07;7.60;;;5.15;;
71303;SDS011;59091;47.446;19.148;2023-07-02T04:15:32;7.15;;;5.00;;
71303;SDS011;59091;47.446;19.148;2023-07-02T04:17:58;9.60;;;5.22;;
71303;SDS011;59091;47.446;19.148;2023-07-02T04:20:23;6.05;;;4.85;;
71303;SDS011;59091;47.446;19.148;2023-07-02T04:22:50;10.07;;;5.32;;
71303;SDS011;59091;47.446;19.148;2023-07-02T04:25:15;8.32;;;5.07;;
71303;SDS011;59091;47.446;19.148;2023-07-02T04:27:42;6.63;;;5.13;;
71303;SDS011;59091;47.446;19.148;2023-07-02T04:30:08;5.47;;;4.82;;
71303;SDS011;59091;47.446;19.148;2023-07-02T04:32:37;7.40;;;4.82;;
71303;SDS011;59091;47.446;19.148;2023-07-02T04:35:06;6.32;;;4.80;;
71303;SDS011;59091;47.446;19.148;2023-07-02T04:37:32;6.70;;;5.10;;
71303;SDS011;59091;47.446;19.148;2023-07-02T04:39:58;7.28;;;4.55;;
71303;SDS011;59091;47.446;19.148;2023-07-02T04:42:23;6.75;;;4.65;;
71303;SDS011;59091;47.446;19.148;2023-07-02T04:44:55;6.82;;;4.97;;
71303;SDS011;59091;47.446;19.148;2023-07-02T04:47:21;7.28;;;4.60;;
71303;SDS011;59091;47.446;19.148;2023-07-02T04:49:46;10.00;;;4.88;;
71303;SDS011;59091;47.446;19.148;2023-07-02T04:52:12;7.25;;;5.07;;
71303;SDS011;59091;47.446;19.148;2023-07-02T04:54:37;7.43;;;5.00;;
71303;SDS011;59091;47.446;19.148;2023-07-02T04:57:03;9.00;;;5.00;;
71303;SDS011;59091;47.446;19.148;2023-07-02T04:59:29;8.30;;;4.70;;
71303;SDS011;59091;47.446;19.148;2023-07-02T05:01:54;12.60;;;4.72;;
71303;SDS011;59091;47.446;19.148;2023-07-02T05:04:19;8.52;;;5.20;;
71303;SDS011;59091;47.446;19.148;2023-07-02T05:06:45;8.00;;;5.00;;
71303;SDS011;59091;47.446;19.148;2023-07-02T05:09:10;7.78;;;5.40;;
71303;SDS011;59091;47.446;19.148;2023-07-02T05:11:36;11.30;;;4.97;;
71303;SDS011;59091;47.446;19.148;2023-07-02T05:14:01;6.03;;;4.80;;
71303;SDS011;59091;47.446;19.148;2023-07-02T05:16:27;10.23;;;5.00;;
71303;SDS011;59091;47.446;19.148;2023-07-02T05:18:52;9.02;;;5.43;;
71303;SDS011;59091;47.446;19.148;2023-07-02T05:21:18;9.48;;;5.50;;
71303;SDS011;59091;47.446;19.148;2023-07-02T05:23:43;13.93;;;5.82;;
71303;SDS011;59091;47.446;19.148;2023-07-02T05:26:09;8.48;;;4.97;;
71303;SDS011;59091;47.446;19.148;2023-07-02T05:28:34;13.60;;;5.65;;
71303;SDS011;59091;47.446;19.148;2023-07-02T05:31:00;11.88;;;5.68;;
71303;SDS011;59091;47.446;19.148;2023-07-02T05:33:25;7.13;;;5.13;;
71303;SDS011;59091;47.446;19.148;2023-07-02T05:35:51;8.00;;;5.13;;
71303;SDS011;59091;47.446;19.148;2023-07-02T05:38:17;6.47;;;5.10;;
71303;SDS011;59091;47.446;19.148;2023-07-02T05:40:43;10.10;;;4.97;;
71303;SDS011;59091;47.446;19.148;2023-07-02T05:43:09;9.75;;;5.35;;
71303;SDS011;59091;47.446;19.148;2023-07-02T05:45:34;9.43;;;4.90;;
71303;SDS011;59091;47.446;19.148;2023-07-02T05:48:00;12.32;;;5.88;;
71303;SDS011;59091;47.446;19.148;2023-07-02T05:50:26;8.70;;;5.28;;
71303;SDS011;59091;47.446;19.148;2023-07-02T05:52:51;5.75;;;5.10;;
71303;SDS011;59091;47.446;19.148;2023-07-02T05:55:16;8.85;;;5.22;;
71303;SDS011;59091;47.446;19.148;2023-07-02T05:57:42;10.43;;;5.00;;
71303;SDS011;59091;47.446;19.148;2023-07-02T06:00:07;7.10;;;4.97;;
71303;SDS011;59091;47.446;19.148;2023-07-02T06:02:33;7.50;;;5.10;;
71303;SDS011;59091;47.446;19.148;2023-07-02T06:04:59;6.85;;;4.70;;
71303;SDS011;59091;47.446;19.148;2023-07-02T06:07:24;10.80;;;4.80;;
71303;SDS011;59091;47.446;19.148;2023-07-02T06:09:50;5.82;;;4.43;;
71303;SDS011;59091;47.446;19.148;2023-07-02T06:12:15;6.20;;;5.00;;
71303;SDS011;59091;47.446;19.148;2023-07-02T06:14:41;4.97;;;4.47;;
71303;SDS011;59091;47.446;19.148;2023-07-02T06:17:07;7.65;;;4.60;;
71303;SDS011;59091;47.446;19.148;2023-07-02T06:19:33;8.25;;;4.50;;
71303;SDS011;59091;47.446;19.148;2023-07-02T06:21:59;5.95;;;4.60;;
71303;SDS011;59091;47.446;19.148;2023-07-02T06:24:25;7.10;;;4.72;;
71303;SDS011;59091;47.446;19.148;2023-07-02T06:26:50;8.88;;;4.72;;
71303;SDS011;59091;47.446;19.148;2023-07-02T06:29:16;4.90;;;4.30;;
71303;SDS011;59091;47.446;19.148;2023-07-02T06:31:41;8.38;;;4.40;;
71303;SDS011;59091;47.446;19.148;2023-07-02T06:34:07;5.85;;;4.35;;
71303;SDS011;59091;47.446;19.148;2023-07-02T06:36:33;7.07;;;4.68;;
71303;SDS011;59091;47.446;19.148;2023-07-02T06:38:59;10.00;;;4.78;;
71303;SDS011;59091;47.446;19.148;2023-07-02T06:41:24;8.25;;;4.35;;
71303;SDS011;59091;47.446;19.148;2023-07-02T06:43:50;6.15;;;4.63;;
71303;SDS011;59091;47.446;19.148;2023-07-02T06:46:16;7.63;;;4.18;;
71303;SDS011;59091;47.446;19.148;2023-07-02T06:48:41;6.70;;;4.53;;
71303;SDS011;59091;47.446;19.148;2023-07-02T06:51:06;6.97;;;4.45;;
71303;SDS011;59091;47.446;19.148;2023-07-02T06:53:33;9.73;;;4.60;;
71303;SDS011;59091;47.446;19.148;2023-07-02T06:55:59;6.65;;;4.80;;
71303;SDS011;59091;47.446;19.148;2023-07-02T06:58:24;6.45;;;4.43;;
71303;SDS011;59091;47.446;19.148;2023-07-02T07:00:49;5.50;;;4.05;;
71303;SDS011;59091;47.446;19.148;2023-07-02T07:03:15;5.10;;;4.13;;
71303;SDS011;59091;47.446;19.148;2023-07-02T07:05:41;4.80;;;4.30;;
71303;SDS011;59091;47.446;19.148;2023-07-02T07:08:07;15.02;;;4.40;;
71303;SDS011;59091;47.446;19.148;2023-07-02T07:10:32;7.13;;;3.90;;
71303;SDS011;59091;47.446;19.148;2023-07-02T07:12:59;7.30;;;4.32;;
71303;SDS011;59091;47.446;19.148;2023-07-02T07:15:33;7.53;;;4.45;;
71303;SDS011;59091;47.446;19.148;2023-07-02T07:18:02;6.75;;;3.80;;
71303;SDS011;59091;47.446;19.148;2023-07-02T07:20:28;6.65;;;3.55;;
71303;SDS011;59091;47.446;19.148;2023-07-02T07:22:54;9.23;;;4.05;;
71303;SDS011;59091;47.446;19.148;2023-07-02T07:25:19;6.70;;;4.00;;
71303;SDS011;59091;47.446;19.148;2023-07-02T07:27:45;6.82;;;3.90;;
71303;SDS011;59091;47.446;19.148;2023-07-02T07:30:10;8.20;;;3.83;;
71303;SDS011;59091;47.446;19.148;2023-07-02T07:32:36;5.30;;;3.78;;
71303;SDS011;59091;47.446;19.148;2023-07-02T07:35:02;5.35;;;3.50;;
71303;SDS011;59091;47.446;19.148;2023-07-02T07:37:28;6.53;;;3.72;;
71303;SDS011;59091;47.446;19.148;2023-07-02T07:39:53;5.32;;;3.33;;
71303;SDS011;59091;47.446;19.148;2023-07-02T07:42:19;5.45;;;3.42;;
71303;SDS011;59091;47.446;19.148;2023-07-02T07:44:44;7.30;;;3.22;;
71303;SDS011;59091;47.446;19.148;2023-07-02T07:47:10;5.80;;;3.42;;
71303;SDS011;59091;47.446;19.148;2023-07-02T07:49:36;4.35;;;3.53;;
71303;SDS011;59091;47.446;19.148;2023-07-02T07:52:01;4.18;;;3.60;;
71303;SDS011;59091;47.446;19.148;2023-07-02T07:54:28;4.40;;;3.72;;
71303;SDS011;59091;47.446;19.148;2023-07-02T07:56:54;5.72;;;3.08;;
71303;SDS011;59091;47.446;19.148;2023-07-02T07:59:19;6.65;;;3.22;;
71303;SDS011;59091;47.446;19.148;2023-07-02T08:01:45;4.00;;;3.20;;
71303;SDS011;59091;47.446;19.148;2023-07-02T08:04:11;5.70;;;3.20;;
71303;SDS011;59091;47.446;19.148;2023-07-02T08:06:37;4.28;;;2.80;;
71303;SDS011;59091;47.446;19.148;2023-07-02T08:09:02;6.13;;;3.05;;
71303;SDS011;59091;47.446;19.148;2023-07-02T08:11:28;3.50;;;3.20;;
71303;SDS011;59091;47.446;19.148;2023-07-02T08:13:53;6.18;;;3.15;;
71303;SDS011;59091;47.446;19.148;2023-07-02T08:16:19;5.28;;;3.13;;
71303;SDS011;59091;47.446;19.148;2023-07-02T08:18:44;9.25;;;3.08;;
71303;SDS011;59091;47.446;19.148;2023-07-02T08:21:10;4.95;;;3.50;;
71303;SDS011;59091;47.446;19.148;2023-07-02T08:23:36;5.93;;;3.38;;
71303;SDS011;59091;47.446;19.148;2023-07-02T08:26:02;3.90;;;3.10;;
71303;SDS011;59091;47.446;19.148;2023-07-02T08:28:28;3.85;;;2.90;;
71303;SDS011;59091;47.446;19.148;2023-07-02T08:30:54;4.28;;;3.00;;
71303;SDS011;59091;47.446;19.148;2023-07-02T08:33:19;4.32;;;2.97;;
71303;SDS011;59091;47.446;19.148;2023-07-02T08:35:45;8.70;;;3.10;;
71303;SDS011;59091;47.446;19.148;2023-07-02T08:38:11;5.70;;;3.08;;
71303;SDS011;59091;47.446;19.148;2023-07-02T08:40:36;4.03;;;3.55;;
71303;SDS011;59091;47.446;19.148;2023-07-02T08:43:01;3.53;;;2.88;;
71303;SDS011;59091;47.446;19.148;2023-07-02T08:45:27;7.15;;;3.40;;
71303;SDS011;59091;47.446;19.148;2023-07-02T08:47:53;7.47;;;3.17;;
71303;SDS011;59091;47.446;19.148;2023-07-02T08:50:23;11.10;;;3.30;;
71303;SDS011;59091;47.446;19.148;2023-07-02T08:52:49;4.57;;;2.83;;
71303;SDS011;59091;47.446;19.148;2023-07-02T08:55:15;3.97;;;3.00;;
71303;SDS011;59091;47.446;19.148;2023-07-02T08:57:41;6.75;;;3.00;;
71303;SDS011;59091;47.446;19.148;2023-07-02T09:00:14;6.25;;;2.88;;
71303;SDS011;59091;47.446;19.148;2023-07-02T09:02:40;5.45;;;2.90;;
71303;SDS011;59091;47.446;19.148;2023-07-02T09:05:06;6.13;;;3.58;;
71303;SDS011;59091;47.446;19.148;2023-07-02T09:07:31;3.60;;;3.08;;
71303;SDS011;59091;47.446;19.148;2023-07-02T09:09:57;3.65;;;2.92;;
71303;SDS011;59091;47.446;19.148;2023-07-02T09:12:23;3.80;;;3.40;;
71303;SDS011;59091;47.446;19.148;2023-07-02T09:15:03;4.45;;;3.33;;
71303;SDS011;59091;47.446;19.148;2023-07-02T09:17:32;7.47;;;3.20;;
71303;SDS011;59091;47.446;19.148;2023-07-02T09:20:00;7.85;;;2.90;;
71303;SDS011;59091;47.446;19.148;2023-07-02T09:22:27;4.90;;;3.58;;
71303;SDS011;59091;47.446;19.148;2023-07-02T09:24:57;6.05;;;3.10;;
71303;SDS011;59091;47.446;19.148;2023-07-02T09:27:39;3.58;;;3.10;;
71303;SDS011;59091;47.446;19.148;2023-07-02T09:32:35;11.85;;;3.47;;
71303;SDS011;59091;47.446;19.148;2023-07-02T09:35:01;10.73;;;3.67;;
71303;SDS011;59091;47.446;19.148;2023-07-02T09:37:27;4.82;;;3.58;;
71303;SDS011;59091;47.446;19.148;2023-07-02T09:39:53;6.70;;;3.70;;
71303;SDS011;59091;47.446;19.148;2023-07-02T09:42:21;7.93;;;4.05;;
71303;SDS011;59091;47.446;19.148;2023-07-02T09:44:46;4.72;;;3.60;;
71303;SDS011;59091;47.446;19.148;2023-07-02T09:47:13;5.38;;;4.10;;
71303;SDS011;59091;47.446;19.148;2023-07-02T09:49:44;6.85;;;4.03;;
71303;SDS011;59091;47.446;19.148;2023-07-02T09:52:14;7.13;;;4.00;;
71303;SDS011;59091;47.446;19.148;2023-07-02T09:54:41;6.80;;;4.10;;
71303;SDS011;59091;47.446;19.148;2023-07-02T09:57:07;4.65;;;4.22;;
71303;SDS011;59091;47.446;19.148;2023-07-02T09:59:33;4.82;;;3.60;;
71303;SDS011;59091;47.446;19.148;2023-07-02T10:01:58;7.72;;;4.07;;
71303;SDS011;59091;47.446;19.148;2023-07-02T10:04:24;6.35;;;4.03;;
71303;SDS011;59091;47.446;19.148;2023-07-02T10:09:20;4.38;;;3.88;;
71303;SDS011;59091;47.446;19.148;2023-07-02T10:11:46;4.45;;;3.78;;
71303;SDS011;59091;47.446;19.148;2023-07-02T10:14:12;4.35;;;3.78;;
71303;SDS011;59091;47.446;19.148;2023-07-02T10:16:50;4.90;;;3.85;;
71303;SDS011;59091;47.446;19.148;2023-07-02T10:19:17;14.07;;;4.18;;
71303;SDS011;59091;47.446;19.148;2023-07-02T10:21:42;8.15;;;4.03;;
71303;SDS011;59091;47.446;19.148;2023-07-02T10:24:14;5.43;;;4.07;;
71303;SDS011;59091;47.446;19.148;2023-07-02T10:27:02;4.60;;;3.60;;
71303;SDS011;59091;47.446;19.148;2023-07-02T10:29:30;7.82;;;3.55;;
71303;SDS011;59091;47.446;19.148;2023-07-02T10:31:56;5.40;;;3.50;;
71303;SDS011;59091;47.446;19.148;2023-07-02T10:34:32;5.75;;;3.85;;
71303;SDS011;59091;47.446;19.148;2023-07-02T10:37:02;5.28;;;3.42;;
71303;SDS011;59091;47.446;19.148;2023-07-02T10:39:29;4.05;;;3.40;;
71303;SDS011;59091;47.446;19.148;2023-07-02T10:42:08;5.97;;;3.40;;
71303;SDS011;59091;47.446;19.148;2023-07-02T10:44:35;5.50;;;3.60;;
71303;SDS011;59091;47.446;19.148;2023-07-02T10:47:12;6.50;;;4.03;;
71303;SDS011;59091;47.446;19.148;2023-07-02T10:49:37;7.60;;;3.33;;
71303;SDS011;59091;47.446;19.148;2023-07-02T10:52:03;4.68;;;3.67;;
71303;SDS011;59091;47.446;19.148;2023-07-02T10:57:14;4.63;;;3.22;;
71303;SDS011;59091;47.446;19.148;2023-07-02T10:59:45;4.57;;;3.20;;
71303;SDS011;59091;47.446;19.148;2023-07-02T11:02:11;9.65;;;3.78;;
71303;SDS011;59091;47.446;19.148;2023-07-02T11:04:37;4.55;;;3.65;;
71303;SDS011;59091;47.446;19.148;2023-07-02T11:07:03;10.40;;;3.72;;
71303;SDS011;59091;47.446;19.148;2023-07-02T11:09:29;6.45;;;3.60;;
71303;SDS011;59091;47.446;19.148;2023-07-02T11:11:56;3.85;;;3.55;;
71303;SDS011;59091;47.446;19.148;2023-07-02T11:14:35;3.67;;;3.20;;
71303;SDS011;59091;47.446;19.148;2023-07-02T11:17:04;7.07;;;3.17;;
71303;SDS011;59091;47.446;19.148;2023-07-02T11:19:34;2.97;;;2.78;;
71303;SDS011;59091;47.446;19.148;2023-07-02T11:22:00;3.95;;;3.13;;
71303;SDS011;59091;47.446;19.148;2023-07-02T11:24:35;3.63;;;3.33;;
71303;SDS011;59091;47.446;19.148;2023-07-02T11:27:02;4.25;;;3.38;;
71303;SDS011;59091;47.446;19.148;2023-07-02T11:29:30;4.32;;;2.85;;
71303;SDS011;59091;47.446;19.148;2023-07-02T11:32:08;4.00;;;3.15;;
71303;SDS011;59091;47.446;19.148;2023-07-02T11:34:35;6.60;;;3.20;;
71303;SDS011;59091;47.446;19.148;2023-07-02T11:37:01;3.72;;;2.80;;
71303;SDS011;59091;47.446;19.148;2023-07-02T11:39:28;5.55;;;2.88;;
71303;SDS011;59091;47.446;19.148;2023-07-02T11:41:53;6.40;;;3.20;;
71303;SDS011;59091;47.446;19.148;2023-07-02T11:44:19;6.82;;;3.28;;
71303;SDS011;59091;47.446;19.148;2023-07-02T11:46:45;5.85;;;3.00;;
71303;SDS011;59091;47.446;19.148;2023-07-02T11:49:12;3.53;;;3.15;;
71303;SDS011;59091;47.446;19.148;2023-07-02T11:51:41;7.55;;;3.20;;
71303;SDS011;59091;47.446;19.148;2023-07-02T11:54:11;9.00;;;3.10;;
71303;SDS011;59091;47.446;19.148;2023-07-02T11:56:37;3.60;;;3.00;;
71303;SDS011;59091;47.446;19.148;2023-07-02T11:59:03;4.00;;;2.90;;
71303;SDS011;59091;47.446;19.148;2023-07-02T12:01:28;4.50;;;3.30;;
71303;SDS011;59091;47.446;19.148;2023-07-02T12:03:54;8.32;;;3.20;;
71303;SDS011;59091;47.446;19.148;2023-07-02T12:06:19;4.88;;;3.10;;
71303;SDS011;59091;47.446;19.148;2023-07-02T12:08:45;2.85;;;2.63;;
71303;SDS011;59091;47.446;19.148;2023-07-02T12:11:10;6.03;;;2.85;;
71303;SDS011;59091;47.446;19.148;2023-07-02T12:13:36;3.00;;;2.58;;
71303;SDS011;59091;47.446;19.148;2023-07-02T12:16:01;5.07;;;2.72;;
71303;SDS011;59091;47.446;19.148;2023-07-02T12:18:27;3.08;;;2.75;;
71303;SDS011;59091;47.446;19.148;2023-07-02T12:20:52;5.40;;;2.75;;
71303;SDS011;59091;47.446;19.148;2023-07-02T12:23:17;4.95;;;2.60;;
71303;SDS011;59091;47.446;19.148;2023-07-02T12:25:43;2.97;;;2.50;;
71303;SDS011;59091;47.446;19.148;2023-07-02T12:28:08;3.47;;;2.60;;
71303;SDS011;59091;47.446;19.148;2023-07-02T12:30:34;5.45;;;2.80;;
71303;SDS011;59091;47.446;19.148;2023-07-02T12:32:59;4.75;;;2.70;;
71303;SDS011;59091;47.446;19.148;2023-07-02T12:35:25;2.90;;;2.47;;
71303;SDS011;59091;47.446;19.148;2023-07-02T12:37:51;4.00;;;2.20;;
71303;SDS011;59091;47.446;19.148;2023-07-02T12:40:18;3.85;;;2.13;;
71303;SDS011;59091;47.446;19.148;2023-07-02T12:42:45;2.80;;;2.30;;
71303;SDS011;59091;47.446;19.148;2023-07-02T12:45:11;4.63;;;2.83;;
71303;SDS011;59091;47.446;19.148;2023-07-02T12:47:38;2.75;;;2.55;;
71303;SDS011;59091;47.446;19.148;2023-07-02T12:50:05;2.70;;;2.47;;
71303;SDS011;59091;47.446;19.148;2023-07-02T12:52:31;3.63;;;2.70;;
71303;SDS011;59091;47.446;19.148;2023-07-02T12:54:56;6.50;;;2.47;;
71303;SDS011;59091;47.446;19.148;2023-07-02T12:57:22;3.08;;;2.78;;
71303;SDS011;59091;47.446;19.148;2023-07-02T12:59:47;5.10;;;2.45;;
71303;SDS011;59091;47.446;19.148;2023-07-02T13:02:12;2.75;;;2.50;;
71303;SDS011;59091;47.446;19.148;2023-07-02T13:04:38;2.65;;;2.40;;
71303;SDS011;59091;47.446;19.148;2023-07-02T13:07:23;3.90;;;1.98;;
71303;SDS011;59091;47.446;19.148;2023-07-02T13:09:51;3.30;;;1.85;;
71303;SDS011;59091;47.446;19.148;2023-07-02T13:12:17;3.08;;;1.90;;
71303;SDS011;59091;47.446;19.148;2023-07-02T13:14:43;2.95;;;1.65;;
71303;SDS011;59091;47.446;19.148;2023-07-02T13:17:08;2.88;;;1.83;;
71303;SDS011;59091;47.446;19.148;2023-07-02T13:19:33;2.38;;;2.00;;
71303;SDS011;59091;47.446;19.148;2023-07-02T13:22:00;1.92;;;1.83;;
71303;SDS011;59091;47.446;19.148;2023-07-02T13:24:27;4.18;;;2.05;;
71303;SDS011;59091;47.446;19.148;2023-07-02T13:26:57;2.47;;;2.15;;
71303;SDS011;59091;47.446;19.148;2023-07-02T13:29:22;1.95;;;1.85;;
71303;SDS011;59091;47.446;19.148;2023-07-02T13:31:48;1.88;;;1.77;;
71303;SDS011;59091;47.446;19.148;2023-07-02T13:34:13;2.47;;;1.95;;
71303;SDS011;59091;47.446;19.148;2023-07-02T13:36:38;1.77;;;1.65;;
71303;SDS011;59091;47.446;19.148;2023-07-02T13:39:04;1.92;;;1.73;;
71303;SDS011;59091;47.446;19.148;2023-07-02T13:41:29;1.42;;;1.30;;
71303;SDS011;59091;47.446;19.148;2023-07-02T13:43:55;1.77;;;1.48;;
71303;SDS011;59091;47.446;19.148;2023-07-02T13:46:21;1.50;;;1.40;;
71303;SDS011;59091;47.446;19.148;2023-07-02T13:48:47;1.23;;;1.15;;
71303;SDS011;59091;47.446;19.148;2023-07-02T13:51:13;4.40;;;1.30;;
71303;SDS011;59091;47.446;19.148;2023-07-02T13:53:38;1.40;;;1.30;;
71303;SDS011;59091;47.446;19.148;2023-07-02T13:56:04;0.90;;;0.90;;
71303;SDS011;59091;47.446;19.148;2023-07-02T14:01:19;1.40;;;1.30;;
71303;SDS011;59091;47.446;19.148;2023-07-02T14:03:45;1.25;;;1.15;;
71303;SDS011;59091;47.446;19.148;2023-07-02T14:06:10;4.78;;;1.10;;
71303;SDS011;59091;47.446;19.148;2023-07-02T14:08:36;2.72;;;1.17;;
71303;SDS011;59091;47.446;19.148;2023-07-02T14:11:01;1.20;;;1.20;;
71303;SDS011;59091;47.446;19.148;2023-07-02T14:13:27;0.93;;;0.93;;
71303;SDS011;59091;47.446;19.148;2023-07-02T14:15:52;1.30;;;1.20;;
71303;SDS011;59091;47.446;19.148;2023-07-02T14:18:17;1.48;;;1.20;;
71303;SDS011;59091;47.446;19.148;2023-07-02T14:20:43;1.33;;;1.23;;
71303;SDS011;59091;47.446;19.148;2023-07-02T14:23:08;1.13;;;1.13;;
71303;SDS011;59091;47.446;19.148;2023-07-02T14:25:34;3.67;;;1.30;;
71303;SDS011;59091;47.446;19.148;2023-07-02T14:27:59;3.00;;;1.30;;
71303;SDS011;59091;47.446;19.148;2023-07-02T14:30:25;2.85;;;1.40;;
71303;SDS011;59091;47.446;19.148;2023-07-02T14:32:50;5.18;;;1.98;;
71303;SDS011;59091;47.446;19.148;2023-07-02T14:35:16;1.38;;;1.33;;
71303;SDS011;59091;47.446;19.148;2023-07-02T14:37:41;1.92;;;1.40;;